sensor_id;sensor_type;location;lat;lon;timestamp;P1;durP1;ratioP1;P2;durP2;ratioP2
41713;SDS011;27401;47.384;13.666;2023-07-31T00:01:47;3.33;;;1.75;;
41713;SDS011;27401;47.384;13.666;2023-07-31T00:04:13;2.95;;;1.33;;
41713;SDS011;27401;47.384;13.666;2023-07-31T00:06:38;2.60;;;1.40;;
41713;SDS011;27401;47.384;13.666;2023-07-31T00:09:04;3.15;;;1.48;;
41713;SDS011;27401;47.384;13.666;2023-07-31T00:11:29;1.38;;;1.27;;
41713;SDS011;27401;47.384;13.666;2023-07-31T00:13:55;2.15;;;1.27;;
41713;SDS011;27401;47.384;13.666;2023-07-31T00:16:20;2.45;;;1.23;;
41713;SDS011;27401;47.384;13.666;2023-07-31T00:18:46;6.22;;;1.80;;
41713;SDS011;27401;47.384;13.666;2023-07-31T00:21:12;1.52;;;1.40;;
41713;SDS011;27401;47.384;13.666;2023-07-31T00:23:37;3.10;;;1.40;;
41713;SDS011;27401;47.384;13.666;2023-07-31T00:26:03;1.83;;;1.38;;
41713;SDS011;27401;47.384;13.666;2023-07-31T00:28:28;4.80;;;1.40;;
41713;SDS011;27401;47.384;13.666;2023-07-31T00:30:54;3.38;;;1.63;;
41713;SDS011;27401;47.384;13.666;2023-07-31T00:33:24;2.13;;;1.58;;
41713;SDS011;27401;47.384;13.666;2023-07-31T00:35:50;1.80;;;1.50;;
41713;SDS011;27401;47.384;13.666;2023-07-31T00:38:15;2.53;;;1.20;;
41713;SDS011;27401;47.384;13.666;2023-07-31T00:40:41;5.68;;;1.40;;
41713;SDS011;27401;47.384;13.666;2023-07-31T00:43:06;3.70;;;1.40;;
41713;SDS011;27401;47.384;13.666;2023-07-31T00:45:33;1.58;;;1.38;;
41713;SDS011;27401;47.384;13.666;2023-07-31T00:47:59;3.55;;;1.80;;
41713;SDS011;27401;47.384;13.666;2023-07-31T00:50:25;4.55;;;1.75;;
41713;SDS011;27401;47.384;13.666;2023-07-31T00:52:51;4.45;;;1.80;;
41713;SDS011;27401;47.384;13.666;2023-07-31T00:55:17;3.05;;;1.65;;
41713;SDS011;27401;47.384;13.666;2023-07-31T00:57:43;2.47;;;1.60;;
41713;SDS011;27401;47.384;13.666;2023-07-31T01:00:10;1.40;;;1.30;;
41713;SDS011;27401;47.384;13.666;2023-07-31T01:02:36;3.28;;;1.25;;
41713;SDS011;27401;47.384;13.666;2023-07-31T01:05:02;2.58;;;2.20;;
41713;SDS011;27401;47.384;13.666;2023-07-31T01:10:30;2.92;;;1.40;;
41713;SDS011;27401;47.384;13.666;2023-07-31T01:13:00;2.42;;;1.70;;
41713;SDS011;27401;47.384;13.666;2023-07-31T01:15:27;2.95;;;1.75;;
41713;SDS011;27401;47.384;13.666;2023-07-31T01:17:52;1.95;;;1.60;;
41713;SDS011;27401;47.384;13.666;2023-07-31T01:20:21;7.22;;;2.03;;
41713;SDS011;27401;47.384;13.666;2023-07-31T01:23:08;2.53;;;1.60;;
41713;SDS011;27401;47.384;13.666;2023-07-31T01:31:11;4.82;;;1.40;;
41713;SDS011;27401;47.384;13.666;2023-07-31T01:33:40;1.73;;;1.63;;
41713;SDS011;27401;47.384;13.666;2023-07-31T01:36:05;3.13;;;1.50;;
41713;SDS011;27401;47.384;13.666;2023-07-31T01:38:31;2.83;;;1.70;;
41713;SDS011;27401;47.384;13.666;2023-07-31T01:40:56;4.05;;;1.50;;
41713;SDS011;27401;47.384;13.666;2023-07-31T01:43:24;1.55;;;1.45;;
41713;SDS011;27401;47.384;13.666;2023-07-31T01:45:50;1.90;;;1.70;;
41713;SDS011;27401;47.384;13.666;2023-07-31T01:48:16;2.15;;;1.77;;
41713;SDS011;27401;47.384;13.666;2023-07-31T01:50:42;1.67;;;1.48;;
41713;SDS011;27401;47.384;13.666;2023-07-31T01:53:07;2.40;;;1.50;;
41713;SDS011;27401;47.384;13.666;2023-07-31T01:55:33;3.13;;;1.55;;
41713;SDS011;27401;47.384;13.666;2023-07-31T01:57:59;1.75;;;1.48;;
41713;SDS011;27401;47.384;13.666;2023-07-31T02:00:24;1.90;;;1.70;;
41713;SDS011;27401;47.384;13.666;2023-07-31T02:02:50;2.97;;;1.65;;
41713;SDS011;27401;47.384;13.666;2023-07-31T02:05:18;2.20;;;1.40;;
41713;SDS011;27401;47.384;13.666;2023-07-31T02:07:43;3.20;;;1.40;;
41713;SDS011;27401;47.384;13.666;2023-07-31T02:10:09;2.75;;;1.50;;
41713;SDS011;27401;47.384;13.666;2023-07-31T02:12:34;2.83;;;2.10;;
41713;SDS011;27401;47.384;13.666;2023-07-31T02:15:01;1.63;;;1.40;;
41713;SDS011;27401;47.384;13.666;2023-07-31T02:17:26;1.42;;;1.33;;
41713;SDS011;27401;47.384;13.666;2023-07-31T02:19:52;3.53;;;1.40;;
41713;SDS011;27401;47.384;13.666;2023-07-31T02:22:17;2.50;;;1.13;;
41713;SDS011;27401;47.384;13.666;2023-07-31T02:24:43;1.98;;;1.67;;
41713;SDS011;27401;47.384;13.666;2023-07-31T02:27:09;3.92;;;1.50;;
41713;SDS011;27401;47.384;13.666;2023-07-31T02:29:34;2.13;;;1.50;;
41713;SDS011;27401;47.384;13.666;2023-07-31T02:32:00;3.25;;;1.65;;
41713;SDS011;27401;47.384;13.666;2023-07-31T02:34:26;4.45;;;1.60;;
41713;SDS011;27401;47.384;13.666;2023-07-31T02:36:52;1.58;;;1.48;;
41713;SDS011;27401;47.384;13.666;2023-07-31T02:39:17;2.22;;;1.60;;
41713;SDS011;27401;47.384;13.666;2023-07-31T02:41:43;1.60;;;1.50;;
41713;SDS011;27401;47.384;13.666;2023-07-31T02:44:08;3.45;;;1.50;;
41713;SDS011;27401;47.384;13.666;2023-07-31T02:46:35;2.70;;;1.40;;
41713;SDS011;27401;47.384;13.666;2023-07-31T02:49:01;2.72;;;1.95;;
41713;SDS011;27401;47.384;13.666;2023-07-31T02:51:26;5.13;;;1.42;;
41713;SDS011;27401;47.384;13.666;2023-07-31T02:53:52;2.75;;;1.55;;
41713;SDS011;27401;47.384;13.666;2023-07-31T02:56:18;1.90;;;1.40;;
41713;SDS011;27401;47.384;13.666;2023-07-31T02:58:43;2.60;;;1.45;;
41713;SDS011;27401;47.384;13.666;2023-07-31T03:01:09;2.72;;;1.58;;
41713;SDS011;27401;47.384;13.666;2023-07-31T03:03:35;2.97;;;1.50;;
41713;SDS011;27401;47.384;13.666;2023-07-31T03:06:00;2.95;;;1.50;;
41713;SDS011;27401;47.384;13.666;2023-07-31T03:08:26;4.28;;;1.80;;
41713;SDS011;27401;47.384;13.666;2023-07-31T03:10:51;2.60;;;1.40;;
41713;SDS011;27401;47.384;13.666;2023-07-31T03:13:17;2.42;;;1.45;;
41713;SDS011;27401;47.384;13.666;2023-07-31T03:15:42;2.85;;;1.70;;
41713;SDS011;27401;47.384;13.666;2023-07-31T03:18:08;1.73;;;1.63;;
41713;SDS011;27401;47.384;13.666;2023-07-31T03:20:34;2.00;;;1.65;;
41713;SDS011;27401;47.384;13.666;2023-07-31T03:23:00;2.70;;;1.63;;
41713;SDS011;27401;47.384;13.666;2023-07-31T03:25:25;1.50;;;1.40;;
41713;SDS011;27401;47.384;13.666;2023-07-31T03:27:51;1.85;;;1.50;;
41713;SDS011;27401;47.384;13.666;2023-07-31T03:30:16;2.83;;;1.67;;
41713;SDS011;27401;47.384;13.666;2023-07-31T03:32:42;3.53;;;1.50;;
41713;SDS011;27401;47.384;13.666;2023-07-31T03:35:07;4.30;;;1.98;;
41713;SDS011;27401;47.384;13.666;2023-07-31T03:37:33;5.68;;;1.73;;
41713;SDS011;27401;47.384;13.666;2023-07-31T03:39:59;1.85;;;1.45;;
41713;SDS011;27401;47.384;13.666;2023-07-31T03:42:24;3.08;;;1.55;;
41713;SDS011;27401;47.384;13.666;2023-07-31T03:44:50;1.85;;;1.73;;
41713;SDS011;27401;47.384;13.666;2023-07-31T03:47:16;2.88;;;1.40;;
41713;SDS011;27401;47.384;13.666;2023-07-31T03:49:41;2.15;;;1.63;;
41713;SDS011;27401;47.384;13.666;2023-07-31T03:52:07;2.13;;;1.80;;
41713;SDS011;27401;47.384;13.666;2023-07-31T03:54:32;2.58;;;1.60;;
41713;SDS011;27401;47.384;13.666;2023-07-31T03:56:58;3.10;;;1.50;;
41713;SDS011;27401;47.384;13.666;2023-07-31T03:59:23;2.53;;;1.42;;
41713;SDS011;27401;47.384;13.666;2023-07-31T04:01:49;2.10;;;1.90;;
41713;SDS011;27401;47.384;13.666;2023-07-31T04:04:14;1.95;;;1.52;;
41713;SDS011;27401;47.384;13.666;2023-07-31T04:06:40;2.22;;;1.55;;
41713;SDS011;27401;47.384;13.666;2023-07-31T04:09:06;1.60;;;1.50;;
41713;SDS011;27401;47.384;13.666;2023-07-31T04:11:31;2.72;;;1.45;;
41713;SDS011;27401;47.384;13.666;2023-07-31T04:13:57;2.97;;;1.65;;
41713;SDS011;27401;47.384;13.666;2023-07-31T04:16:22;1.65;;;1.55;;
41713;SDS011;27401;47.384;13.666;2023-07-31T04:18:48;1.92;;;1.67;;
41713;SDS011;27401;47.384;13.666;2023-07-31T04:21:13;5.65;;;1.70;;
41713;SDS011;27401;47.384;13.666;2023-07-31T04:23:39;1.80;;;1.70;;
41713;SDS011;27401;47.384;13.666;2023-07-31T04:26:05;2.75;;;1.90;;
41713;SDS011;27401;47.384;13.666;2023-07-31T04:28:30;3.85;;;2.13;;
41713;SDS011;27401;47.384;13.666;2023-07-31T04:30:57;3.13;;;2.10;;
41713;SDS011;27401;47.384;13.666;2023-07-31T04:33:22;2.78;;;2.05;;
41713;SDS011;27401;47.384;13.666;2023-07-31T04:35:51;4.32;;;2.15;;
41713;SDS011;27401;47.384;13.666;2023-07-31T04:38:18;1.85;;;1.73;;
41713;SDS011;27401;47.384;13.666;2023-07-31T04:40:44;8.88;;;2.92;;
41713;SDS011;27401;47.384;13.666;2023-07-31T04:43:10;4.53;;;2.80;;
41713;SDS011;27401;47.384;13.666;2023-07-31T04:45:35;2.88;;;2.42;;
41713;SDS011;27401;47.384;13.666;2023-07-31T04:48:01;3.38;;;2.17;;
41713;SDS011;27401;47.384;13.666;2023-07-31T04:50:26;5.78;;;1.88;;
41713;SDS011;27401;47.384;13.666;2023-07-31T04:52:52;2.10;;;1.80;;
41713;SDS011;27401;47.384;13.666;2023-07-31T04:55:18;3.70;;;2.20;;
41713;SDS011;27401;47.384;13.666;2023-07-31T04:57:43;5.10;;;2.20;;
41713;SDS011;27401;47.384;13.666;2023-07-31T05:00:09;2.30;;;2.10;;
41713;SDS011;27401;47.384;13.666;2023-07-31T05:02:35;3.95;;;2.03;;
41713;SDS011;27401;47.384;13.666;2023-07-31T05:05:00;2.80;;;1.88;;
41713;SDS011;27401;47.384;13.666;2023-07-31T05:07:26;5.63;;;2.20;;
41713;SDS011;27401;47.384;13.666;2023-07-31T05:09:51;4.40;;;2.08;;
41713;SDS011;27401;47.384;13.666;2023-07-31T05:12:17;4.07;;;2.00;;
41713;SDS011;27401;47.384;13.666;2023-07-31T05:14:42;4.43;;;2.20;;
41713;SDS011;27401;47.384;13.666;2023-07-31T05:17:08;2.65;;;1.90;;
41713;SDS011;27401;47.384;13.666;2023-07-31T05:19:33;2.50;;;1.90;;
41713;SDS011;27401;47.384;13.666;2023-07-31T05:21:59;3.33;;;1.83;;
41713;SDS011;27401;47.384;13.666;2023-07-31T05:24:24;1.95;;;1.75;;
41713;SDS011;27401;47.384;13.666;2023-07-31T05:26:50;2.13;;;1.83;;
41713;SDS011;27401;47.384;13.666;2023-07-31T05:29:15;3.28;;;1.80;;
41713;SDS011;27401;47.384;13.666;2023-07-31T05:31:41;3.08;;;1.98;;
41713;SDS011;27401;47.384;13.666;2023-07-31T05:34:07;3.05;;;2.00;;
41713;SDS011;27401;47.384;13.666;2023-07-31T05:36:32;4.22;;;1.70;;
41713;SDS011;27401;47.384;13.666;2023-07-31T05:38:58;2.17;;;1.98;;
41713;SDS011;27401;47.384;13.666;2023-07-31T05:41:23;3.25;;;2.00;;
41713;SDS011;27401;47.384;13.666;2023-07-31T05:43:49;4.43;;;1.70;;
41713;SDS011;27401;47.384;13.666;2023-07-31T05:46:15;2.30;;;2.10;;
41713;SDS011;27401;47.384;13.666;2023-07-31T05:48:40;8.50;;;2.03;;
41713;SDS011;27401;47.384;13.666;2023-07-31T05:51:06;2.80;;;1.90;;
41713;SDS011;27401;47.384;13.666;2023-07-31T05:53:32;3.30;;;1.40;;
41713;SDS011;27401;47.384;13.666;2023-07-31T05:55:57;1.92;;;1.80;;
41713;SDS011;27401;47.384;13.666;2023-07-31T05:58:23;4.80;;;2.10;;
41713;SDS011;27401;47.384;13.666;2023-07-31T06:00:48;4.03;;;2.20;;
41713;SDS011;27401;47.384;13.666;2023-07-31T06:03:14;2.22;;;1.95;;
41713;SDS011;27401;47.384;13.666;2023-07-31T06:05:40;4.85;;;2.08;;
41713;SDS011;27401;47.384;13.666;2023-07-31T06:08:05;2.95;;;1.80;;
41713;SDS011;27401;47.384;13.666;2023-07-31T06:10:31;2.30;;;1.85;;
41713;SDS011;27401;47.384;13.666;2023-07-31T06:12:56;1.63;;;1.52;;
41713;SDS011;27401;47.384;13.666;2023-07-31T06:15:22;4.68;;;2.10;;
41713;SDS011;27401;47.384;13.666;2023-07-31T06:17:48;1.95;;;1.70;;
41713;SDS011;27401;47.384;13.666;2023-07-31T06:20:13;3.45;;;1.70;;
41713;SDS011;27401;47.384;13.666;2023-07-31T06:22:39;2.03;;;1.88;;
41713;SDS011;27401;47.384;13.666;2023-07-31T06:25:04;2.45;;;2.17;;
41713;SDS011;27401;47.384;13.666;2023-07-31T06:27:30;2.72;;;2.15;;
41713;SDS011;27401;47.384;13.666;2023-07-31T06:29:56;2.22;;;1.75;;
41713;SDS011;27401;47.384;13.666;2023-07-31T06:32:21;1.70;;;1.60;;
41713;SDS011;27401;47.384;13.666;2023-07-31T06:34:47;4.00;;;2.53;;
41713;SDS011;27401;47.384;13.666;2023-07-31T06:37:12;2.78;;;2.10;;
41713;SDS011;27401;47.384;13.666;2023-07-31T06:39:38;5.85;;;2.13;;
41713;SDS011;27401;47.384;13.666;2023-07-31T06:42:04;3.05;;;1.75;;
41713;SDS011;27401;47.384;13.666;2023-07-31T06:44:29;2.47;;;1.80;;
41713;SDS011;27401;47.384;13.666;2023-07-31T06:46:55;3.10;;;1.90;;
41713;SDS011;27401;47.384;13.666;2023-07-31T06:49:21;2.78;;;2.10;;
41713;SDS011;27401;47.384;13.666;2023-07-31T06:51:46;2.47;;;2.00;;
41713;SDS011;27401;47.384;13.666;2023-07-31T06:54:12;3.67;;;1.80;;
41713;SDS011;27401;47.384;13.666;2023-07-31T06:56:37;2.85;;;2.22;;
41713;SDS011;27401;47.384;13.666;2023-07-31T06:59:03;3.08;;;2.08;;
41713;SDS011;27401;47.384;13.666;2023-07-31T07:01:28;8.48;;;3.10;;
41713;SDS011;27401;47.384;13.666;2023-07-31T07:03:54;3.60;;;3.00;;
41713;SDS011;27401;47.384;13.666;2023-07-31T07:06:20;4.55;;;3.03;;
41713;SDS011;27401;47.384;13.666;2023-07-31T07:08:47;6.20;;;3.55;;
41713;SDS011;27401;47.384;13.666;2023-07-31T07:11:14;4.57;;;3.67;;
41713;SDS011;27401;47.384;13.666;2023-07-31T07:13:40;4.68;;;3.33;;
41713;SDS011;27401;47.384;13.666;2023-07-31T07:16:05;3.90;;;3.05;;
41713;SDS011;27401;47.384;13.666;2023-07-31T07:18:31;3.63;;;2.55;;
41713;SDS011;27401;47.384;13.666;2023-07-31T07:20:56;2.88;;;1.65;;
41713;SDS011;27401;47.384;13.666;2023-07-31T07:23:23;1.83;;;1.63;;
41713;SDS011;27401;47.384;13.666;2023-07-31T07:25:49;1.67;;;1.50;;
41713;SDS011;27401;47.384;13.666;2023-07-31T07:28:14;4.70;;;1.80;;
41713;SDS011;27401;47.384;13.666;2023-07-31T07:30:40;1.60;;;1.50;;
41713;SDS011;27401;47.384;13.666;2023-07-31T07:33:06;2.20;;;1.75;;
41713;SDS011;27401;47.384;13.666;2023-07-31T07:35:34;1.45;;;1.35;;
41713;SDS011;27401;47.384;13.666;2023-07-31T07:38:01;2.13;;;1.42;;
41713;SDS011;27401;47.384;13.666;2023-07-31T07:40:29;4.05;;;1.77;;
41713;SDS011;27401;47.384;13.666;2023-07-31T07:42:55;5.38;;;3.97;;
41713;SDS011;27401;47.384;13.666;2023-07-31T07:45:21;7.20;;;6.50;;
41713;SDS011;27401;47.384;13.666;2023-07-31T07:47:46;6.03;;;4.35;;
41713;SDS011;27401;47.384;13.666;2023-07-31T07:50:12;4.65;;;2.58;;
41713;SDS011;27401;47.384;13.666;2023-07-31T07:52:37;3.65;;;2.20;;
41713;SDS011;27401;47.384;13.666;2023-07-31T07:55:03;2.80;;;1.88;;
41713;SDS011;27401;47.384;13.666;2023-07-31T07:57:29;1.70;;;1.60;;
41713;SDS011;27401;47.384;13.666;2023-07-31T07:59:55;2.13;;;1.70;;
41713;SDS011;27401;47.384;13.666;2023-07-31T08:02:21;1.70;;;1.35;;
41713;SDS011;27401;47.384;13.666;2023-07-31T08:04:47;1.92;;;1.67;;
41713;SDS011;27401;47.384;13.666;2023-07-31T08:07:12;1.58;;;1.27;;
41713;SDS011;27401;47.384;13.666;2023-07-31T08:09:38;1.67;;;1.58;;
41713;SDS011;27401;47.384;13.666;2023-07-31T08:12:04;2.25;;;1.52;;
41713;SDS011;27401;47.384;13.666;2023-07-31T08:14:30;1.58;;;1.45;;
41713;SDS011;27401;47.384;13.666;2023-07-31T08:16:56;1.63;;;1.42;;
41713;SDS011;27401;47.384;13.666;2023-07-31T08:19:22;1.70;;;1.60;;
41713;SDS011;27401;47.384;13.666;2023-07-31T08:21:47;2.75;;;1.40;;
41713;SDS011;27401;47.384;13.666;2023-07-31T08:24:13;1.67;;;1.58;;
41713;SDS011;27401;47.384;13.666;2023-07-31T08:26:38;4.82;;;4.25;;
41713;SDS011;27401;47.384;13.666;2023-07-31T08:29:04;5.07;;;4.57;;
41713;SDS011;27401;47.384;13.666;2023-07-31T08:31:29;2.75;;;2.30;;
41713;SDS011;27401;47.384;13.666;2023-07-31T08:33:55;3.13;;;2.10;;
41713;SDS011;27401;47.384;13.666;2023-07-31T08:36:21;1.95;;;1.38;;
41713;SDS011;27401;47.384;13.666;2023-07-31T08:38:47;2.88;;;1.73;;
41713;SDS011;27401;47.384;13.666;2023-07-31T08:41:13;1.88;;;1.50;;
41713;SDS011;27401;47.384;13.666;2023-07-31T08:43:38;2.30;;;1.75;;
41713;SDS011;27401;47.384;13.666;2023-07-31T08:46:04;2.13;;;1.67;;
41713;SDS011;27401;47.384;13.666;2023-07-31T08:48:30;2.67;;;1.60;;
41713;SDS011;27401;47.384;13.666;2023-07-31T08:50:57;1.55;;;1.45;;
41713;SDS011;27401;47.384;13.666;2023-07-31T08:53:22;1.67;;;1.35;;
41713;SDS011;27401;47.384;13.666;2023-07-31T08:55:48;1.60;;;1.50;;
41713;SDS011;27401;47.384;13.666;2023-07-31T08:58:14;1.63;;;1.52;;
41713;SDS011;27401;47.384;13.666;2023-07-31T09:00:40;2.17;;;1.73;;
41713;SDS011;27401;47.384;13.666;2023-07-31T09:03:13;2.30;;;1.35;;
41713;SDS011;27401;47.384;13.666;2023-07-31T09:05:41;1.83;;;1.35;;
41713;SDS011;27401;47.384;13.666;2023-07-31T09:08:09;4.63;;;1.80;;
41713;SDS011;27401;47.384;13.666;2023-07-31T09:10:35;1.40;;;1.30;;
41713;SDS011;27401;47.384;13.666;2023-07-31T09:13:06;2.25;;;1.50;;
41713;SDS011;27401;47.384;13.666;2023-07-31T09:15:31;2.05;;;1.85;;
41713;SDS011;27401;47.384;13.666;2023-07-31T09:18:00;2.28;;;2.00;;
41713;SDS011;27401;47.384;13.666;2023-07-31T09:20:26;1.85;;;1.70;;
41713;SDS011;27401;47.384;13.666;2023-07-31T09:22:52;1.77;;;1.67;;
41713;SDS011;27401;47.384;13.666;2023-07-31T09:27:51;2.67;;;2.30;;
41713;SDS011;27401;47.384;13.666;2023-07-31T09:30:19;1.52;;;1.40;;
41713;SDS011;27401;47.384;13.666;2023-07-31T09:32:45;1.55;;;1.45;;
41713;SDS011;27401;47.384;13.666;2023-07-31T09:35:13;2.15;;;1.30;;
41713;SDS011;27401;47.384;13.666;2023-07-31T09:37:39;1.60;;;1.50;;
41713;SDS011;27401;47.384;13.666;2023-07-31T09:40:04;1.20;;;1.10;;
41713;SDS011;27401;47.384;13.666;2023-07-31T09:42:30;1.40;;;1.30;;
41713;SDS011;27401;47.384;13.666;2023-07-31T09:45:06;1.50;;;1.40;;
41713;SDS011;27401;47.384;13.666;2023-07-31T09:47:34;1.73;;;1.60;;
41713;SDS011;27401;47.384;13.666;2023-07-31T09:49:59;1.70;;;1.48;;
41713;SDS011;27401;47.384;13.666;2023-07-31T09:52:25;1.73;;;1.63;;
41713;SDS011;27401;47.384;13.666;2023-07-31T09:54:52;1.70;;;1.60;;
41713;SDS011;27401;47.384;13.666;2023-07-31T09:57:18;1.77;;;1.58;;
41713;SDS011;27401;47.384;13.666;2023-07-31T09:59:47;1.67;;;1.58;;
41713;SDS011;27401;47.384;13.666;2023-07-31T10:02:15;1.92;;;1.45;;
41713;SDS011;27401;47.384;13.666;2023-07-31T10:04:46;2.63;;;1.65;;
41713;SDS011;27401;47.384;13.666;2023-07-31T10:07:14;2.15;;;1.58;;
41713;SDS011;27401;47.384;13.666;2023-07-31T10:09:42;2.03;;;1.60;;
41713;SDS011;27401;47.384;13.666;2023-07-31T10:12:08;2.03;;;1.88;;
41713;SDS011;27401;47.384;13.666;2023-07-31T10:14:35;3.85;;;2.00;;
41713;SDS011;27401;47.384;13.666;2023-07-31T10:17:01;1.77;;;1.23;;
41713;SDS011;27401;47.384;13.666;2023-07-31T10:19:27;2.05;;;1.50;;
41713;SDS011;27401;47.384;13.666;2023-07-31T10:21:54;1.52;;;1.42;;
41713;SDS011;27401;47.384;13.666;2023-07-31T10:24:22;1.40;;;1.30;;
41713;SDS011;27401;47.384;13.666;2023-07-31T10:26:49;2.65;;;1.60;;
41713;SDS011;27401;47.384;13.666;2023-07-31T10:29:15;2.45;;;1.20;;
41713;SDS011;27401;47.384;13.666;2023-07-31T10:31:42;1.80;;;1.70;;
41713;SDS011;27401;47.384;13.666;2023-07-31T10:34:08;1.90;;;1.60;;
41713;SDS011;27401;47.384;13.666;2023-07-31T10:36:34;1.92;;;1.75;;
41713;SDS011;27401;47.384;13.666;2023-07-31T10:39:00;1.75;;;1.38;;
41713;SDS011;27401;47.384;13.666;2023-07-31T10:41:29;2.72;;;1.85;;
41713;SDS011;27401;47.384;13.666;2023-07-31T10:43:59;1.60;;;1.50;;
41713;SDS011;27401;47.384;13.666;2023-07-31T10:46:25;2.58;;;1.48;;
41713;SDS011;27401;47.384;13.666;2023-07-31T10:49:00;2.05;;;1.73;;
41713;SDS011;27401;47.384;13.666;2023-07-31T10:51:33;1.80;;;1.60;;
41713;SDS011;27401;47.384;13.666;2023-07-31T10:54:13;1.52;;;1.42;;
41713;SDS011;27401;47.384;13.666;2023-07-31T10:56:40;2.30;;;1.48;;
41713;SDS011;27401;47.384;13.666;2023-07-31T10:59:10;2.00;;;1.80;;
41713;SDS011;27401;47.384;13.666;2023-07-31T11:01:54;1.92;;;1.50;;
41713;SDS011;27401;47.384;13.666;2023-07-31T11:04:25;1.88;;;1.75;;
41713;SDS011;27401;47.384;13.666;2023-07-31T11:06:55;3.15;;;2.50;;
41713;SDS011;27401;47.384;13.666;2023-07-31T11:09:24;2.03;;;1.83;;
41713;SDS011;27401;47.384;13.666;2023-07-31T11:11:50;1.65;;;1.55;;
41713;SDS011;27401;47.384;13.666;2023-07-31T11:14:17;2.65;;;1.73;;
41713;SDS011;27401;47.384;13.666;2023-07-31T11:16:42;2.80;;;1.92;;
41713;SDS011;27401;47.384;13.666;2023-07-31T11:19:08;1.60;;;1.50;;
41713;SDS011;27401;47.384;13.666;2023-07-31T11:21:33;1.60;;;1.45;;
41713;SDS011;27401;47.384;13.666;2023-07-31T11:23:59;2.08;;;1.73;;
41713;SDS011;27401;47.384;13.666;2023-07-31T11:26:25;1.70;;;1.40;;
41713;SDS011;27401;47.384;13.666;2023-07-31T11:28:50;1.45;;;1.35;;
41713;SDS011;27401;47.384;13.666;2023-07-31T11:31:16;1.90;;;1.75;;
41713;SDS011;27401;47.384;13.666;2023-07-31T11:33:43;1.65;;;1.55;;
41713;SDS011;27401;47.384;13.666;2023-07-31T11:36:15;1.98;;;1.55;;
41713;SDS011;27401;47.384;13.666;2023-07-31T11:38:42;1.60;;;1.50;;
41713;SDS011;27401;47.384;13.666;2023-07-31T11:41:08;1.50;;;1.40;;
41713;SDS011;27401;47.384;13.666;2023-07-31T11:43:33;3.05;;;1.50;;
41713;SDS011;27401;47.384;13.666;2023-07-31T11:46:01;1.83;;;1.52;;
41713;SDS011;27401;47.384;13.666;2023-07-31T11:48:32;4.03;;;3.03;;
41713;SDS011;27401;47.384;13.666;2023-07-31T11:51:01;2.30;;;2.10;;
41713;SDS011;27401;47.384;13.666;2023-07-31T11:56:07;1.70;;;1.60;;
41713;SDS011;27401;47.384;13.666;2023-07-31T11:58:34;1.83;;;1.73;;
41713;SDS011;27401;47.384;13.666;2023-07-31T12:01:00;1.80;;;1.50;;
41713;SDS011;27401;47.384;13.666;2023-07-31T12:03:26;1.67;;;1.42;;
41713;SDS011;27401;47.384;13.666;2023-07-31T12:05:55;1.60;;;1.50;;
41713;SDS011;27401;47.384;13.666;2023-07-31T12:08:21;3.42;;;1.75;;
41713;SDS011;27401;47.384;13.666;2023-07-31T12:10:47;1.75;;;1.65;;
41713;SDS011;27401;47.384;13.666;2023-07-31T12:13:22;2.00;;;1.60;;
41713;SDS011;27401;47.384;13.666;2023-07-31T12:15:53;1.80;;;1.63;;
41713;SDS011;27401;47.384;13.666;2023-07-31T12:18:21;1.77;;;1.48;;
41713;SDS011;27401;47.384;13.666;2023-07-31T12:20:56;2.03;;;1.70;;
41713;SDS011;27401;47.384;13.666;2023-07-31T12:23:26;2.05;;;1.73;;
41713;SDS011;27401;47.384;13.666;2023-07-31T12:26:02;2.10;;;1.40;;
41713;SDS011;27401;47.384;13.666;2023-07-31T12:28:34;1.63;;;1.52;;
41713;SDS011;27401;47.384;13.666;2023-07-31T12:31:06;1.50;;;1.40;;
41713;SDS011;27401;47.384;13.666;2023-07-31T12:33:34;2.63;;;1.52;;
41713;SDS011;27401;47.384;13.666;2023-07-31T12:36:02;1.70;;;1.60;;
41713;SDS011;27401;47.384;13.666;2023-07-31T12:38:28;2.00;;;1.67;;
41713;SDS011;27401;47.384;13.666;2023-07-31T12:40:54;1.75;;;1.65;;
41713;SDS011;27401;47.384;13.666;2023-07-31T12:43:20;1.73;;;1.63;;
41713;SDS011;27401;47.384;13.666;2023-07-31T12:45:46;2.13;;;1.60;;
41713;SDS011;27401;47.384;13.666;2023-07-31T12:48:12;1.45;;;1.35;;
41713;SDS011;27401;47.384;13.666;2023-07-31T12:50:38;1.92;;;1.70;;
41713;SDS011;27401;47.384;13.666;2023-07-31T12:53:04;1.90;;;1.65;;
41713;SDS011;27401;47.384;13.666;2023-07-31T12:55:30;1.50;;;1.40;;
41713;SDS011;27401;47.384;13.666;2023-07-31T12:57:56;4.53;;;1.80;;
41713;SDS011;27401;47.384;13.666;2023-07-31T13:00:22;2.08;;;1.95;;
41713;SDS011;27401;47.384;13.666;2023-07-31T13:02:47;1.80;;;1.70;;
41713;SDS011;27401;47.384;13.666;2023-07-31T13:05:13;1.85;;;1.70;;
41713;SDS011;27401;47.384;13.666;2023-07-31T13:07:39;1.67;;;1.58;;
41713;SDS011;27401;47.384;13.666;2023-07-31T13:10:06;2.15;;;1.50;;
41713;SDS011;27401;47.384;13.666;2023-07-31T13:12:32;2.10;;;1.52;;
41713;SDS011;27401;47.384;13.666;2023-07-31T13:14:58;2.97;;;2.75;;
41713;SDS011;27401;47.384;13.666;2023-07-31T13:17:23;2.20;;;2.00;;
41713;SDS011;27401;47.384;13.666;2023-07-31T13:19:49;3.65;;;1.52;;
41713;SDS011;27401;47.384;13.666;2023-07-31T13:22:14;1.88;;;1.70;;
41713;SDS011;27401;47.384;13.666;2023-07-31T13:24:40;1.88;;;1.75;;
41713;SDS011;27401;47.384;13.666;2023-07-31T13:27:05;1.55;;;1.45;;
41713;SDS011;27401;47.384;13.666;2023-07-31T13:29:31;2.65;;;1.60;;
41713;SDS011;27401;47.384;13.666;2023-07-31T13:31:57;1.83;;;1.67;;
41713;SDS011;27401;47.384;13.666;2023-07-31T13:34:23;1.60;;;1.50;;
41713;SDS011;27401;47.384;13.666;2023-07-31T13:36:48;2.97;;;1.67;;
41713;SDS011;27401;47.384;13.666;2023-07-31T13:39:14;1.58;;;1.48;;
41713;SDS011;27401;47.384;13.666;2023-07-31T13:41:39;1.90;;;1.70;;
41713;SDS011;27401;47.384;13.666;2023-07-31T13:44:05;2.28;;;1.85;;
41713;SDS011;27401;47.384;13.666;2023-07-31T13:46:30;1.83;;;1.73;;
41713;SDS011;27401;47.384;13.666;2023-07-31T13:48:58;1.67;;;1.58;;
41713;SDS011;27401;47.384;13.666;2023-07-31T13:51:24;1.40;;;1.30;;
41713;SDS011;27401;47.384;13.666;2023-07-31T13:53:50;2.13;;;1.48;;
41713;SDS011;27401;47.384;13.666;2023-07-31T13:56:16;1.55;;;1.45;;
41713;SDS011;27401;47.384;13.666;2023-07-31T13:58:42;1.67;;;1.48;;
41713;SDS011;27401;47.384;13.666;2023-07-31T14:01:07;2.10;;;1.70;;
41713;SDS011;27401;47.384;13.666;2023-07-31T14:03:33;2.25;;;1.40;;
41713;SDS011;27401;47.384;13.666;2023-07-31T14:05:58;1.65;;;1.35;;
41713;SDS011;27401;47.384;13.666;2023-07-31T14:08:24;1.77;;;1.67;;
41713;SDS011;27401;47.384;13.666;2023-07-31T14:10:49;2.28;;;1.60;;
41713;SDS011;27401;47.384;13.666;2023-07-31T14:13:15;1.60;;;1.50;;
41713;SDS011;27401;47.384;13.666;2023-07-31T14:15:41;2.22;;;1.65;;
41713;SDS011;27401;47.384;13.666;2023-07-31T14:18:08;1.55;;;1.45;;
41713;SDS011;27401;47.384;13.666;2023-07-31T14:20:33;2.00;;;1.60;;
41713;SDS011;27401;47.384;13.666;2023-07-31T14:22:59;1.58;;;1.48;;
41713;SDS011;27401;47.384;13.666;2023-07-31T14:25:25;3.55;;;1.67;;
41713;SDS011;27401;47.384;13.666;2023-07-31T14:27:50;1.60;;;1.50;;
41713;SDS011;27401;47.384;13.666;2023-07-31T14:30:16;1.98;;;1.63;;
41713;SDS011;27401;47.384;13.666;2023-07-31T14:32:42;1.67;;;1.58;;
41713;SDS011;27401;47.384;13.666;2023-07-31T14:35:07;1.60;;;1.45;;
41713;SDS011;27401;47.384;13.666;2023-07-31T14:37:37;1.80;;;1.70;;
41713;SDS011;27401;47.384;13.666;2023-07-31T14:40:04;2.15;;;2.00;;
41713;SDS011;27401;47.384;13.666;2023-07-31T14:42:29;1.95;;;1.75;;